createdAt,value
2023-06-25T00:01:44.624Z,100.00
2023-06-25T00:06:52.546Z,100.00
2023-06-25T00:11:57.744Z,100.00
2023-06-25T00:17:04.701Z,100.00
2023-06-25T00:22:12.647Z,100.00
2023-06-25T00:27:17.992Z,100.00
2023-06-25T00:32:25.571Z,100.00
2023-06-25T00:37:38.145Z,100.00
2023-06-25T00:42:45.163Z,100.00
2023-06-25T00:47:50.771Z,100.00
2023-06-25T00:52:59.789Z,100.00
2023-06-25T00:58:06.364Z,100.00
2023-06-25T01:03:28.455Z,100.00
2023-06-25T01:08:38.967Z,100.00
2023-06-25T01:13:44.582Z,100.00
2023-06-25T01:24:04.279Z,100.00
2023-06-25T01:29:09.447Z,100.00
2023-06-25T01:34:14.712Z,100.00
2023-06-25T01:39:23.476Z,100.00
2023-06-25T01:44:33.084Z,100.00
2023-06-25T01:49:39.171Z,100.00
2023-06-25T01:54:47.521Z,100.00
2023-06-25T01:59:54.184Z,100.00
2023-06-25T02:04:59.554Z,100.00
2023-06-25T02:10:08.288Z,100.00
2023-06-25T02:15:14.028Z,100.00
2023-06-25T02:20:20.871Z,100.00
2023-06-25T02:25:28.597Z,100.00
2023-06-25T02:30:33.825Z,100.00
2023-06-25T02:35:39.496Z,100.00
2023-06-25T02:40:48.413Z,100.00
2023-06-25T02:45:53.864Z,100.00
2023-06-25T02:51:00.147Z,100.00
2023-06-25T02:56:11.229Z,100.00
2023-06-25T03:01:16.664Z,100.00
2023-06-25T03:06:22.064Z,100.00
2023-06-25T03:11:29.936Z,100.00
2023-06-25T03:16:35.411Z,100.00
2023-06-25T03:21:40.613Z,100.00
2023-06-25T03:26:48.557Z,100.00
2023-06-25T03:31:54.161Z,100.00
2023-06-25T03:37:03.394Z,100.00
2023-06-25T03:42:15.361Z,100.00
2023-06-25T03:47:20.839Z,100.00
2023-06-25T03:52:26.514Z,100.00
2023-06-25T03:57:37.410Z,100.00
2023-06-25T04:02:44.051Z,100.00
2023-06-25T04:07:51.024Z,100.00
2023-06-25T04:12:59.033Z,100.00
2023-06-25T04:18:04.533Z,100.00
2023-06-25T04:23:09.908Z,100.00
2023-06-25T04:28:20.198Z,100.00
2023-06-25T04:33:26.415Z,100.00
2023-06-25T04:38:32.407Z,100.00
2023-06-25T04:43:40.753Z,100.00
2023-06-25T04:48:52.386Z,100.00
2023-06-25T04:53:58.144Z,100.00
2023-06-25T04:59:05.908Z,100.00
2023-06-25T05:04:11.152Z,100.00
2023-06-25T05:09:16.472Z,100.00
2023-06-25T05:14:27.014Z,100.00
2023-06-25T05:19:32.204Z,100.00
2023-06-25T05:24:38.871Z,100.00
2023-06-25T05:29:46.687Z,100.00
2023-06-25T05:34:51.827Z,100.00
2023-06-25T05:39:57.042Z,98.85
2023-06-25T05:45:04.931Z,95.84
2023-06-25T05:50:11.026Z,93.55
2023-06-25T05:55:16.193Z,93.52
2023-06-25T06:00:24.752Z,87.41
2023-06-25T06:05:29.865Z,84.33
2023-06-25T06:10:36.244Z,83.19
2023-06-25T06:15:44.349Z,72.76
2023-06-25T06:20:51.808Z,73.00
2023-06-25T06:25:57.185Z,67.58
2023-06-25T06:31:05.284Z,69.39
2023-06-25T06:36:10.712Z,70.36
2023-06-25T06:41:16.585Z,71.53
2023-06-25T06:46:26.834Z,71.43
2023-06-25T06:51:31.963Z,69.51
2023-06-25T06:56:38.515Z,70.58
2023-06-25T07:01:46.386Z,71.25
2023-06-25T07:06:51.902Z,71.39
2023-06-25T07:11:57.745Z,70.28
2023-06-25T07:17:05.460Z,68.67
2023-06-25T07:22:10.881Z,70.68
2023-06-25T07:27:16.282Z,61.27
2023-06-25T07:32:26.314Z,63.54
2023-06-25T07:37:31.807Z,61.06
2023-06-25T07:42:37.004Z,59.90
2023-06-25T07:47:46.143Z,59.66
2023-06-25T07:52:51.329Z,61.29
2023-06-25T07:57:56.590Z,63.29
2023-06-25T08:03:04.945Z,66.92
2023-06-25T08:08:10.124Z,64.21
2023-06-25T08:13:16.253Z,64.28
2023-06-25T08:18:24.077Z,63.32
2023-06-25T08:23:29.304Z,62.81
2023-06-25T08:28:34.518Z,61.45
2023-06-25T08:33:43.015Z,63.32
2023-06-25T08:38:48.318Z,63.78
2023-06-25T08:43:56.174Z,63.37
2023-06-25T08:49:06.584Z,60.92
2023-06-25T08:54:12.773Z,62.03
2023-06-25T08:59:17.977Z,61.03
2023-06-25T09:04:26.224Z,61.64
2023-06-25T09:09:31.345Z,62.39
2023-06-25T09:14:39.519Z,62.79
2023-06-25T09:19:49.725Z,63.23
2023-06-25T09:24:55.034Z,62.47
2023-06-25T09:30:00.783Z,62.93
2023-06-25T09:35:13.300Z,60.65
2023-06-25T09:40:20.050Z,61.79
2023-06-25T09:45:26.480Z,64.67
2023-06-25T09:50:37.889Z,63.44
2023-06-25T09:55:44.310Z,61.11
2023-06-25T10:00:50.369Z,61.46
2023-06-25T10:05:58.958Z,61.76
2023-06-25T10:11:05.832Z,60.65
2023-06-25T10:16:11.046Z,64.95
2023-06-25T10:21:26.485Z,62.10
2023-06-25T10:26:33.121Z,64.63
2023-06-25T10:31:44.597Z,61.64
2023-06-25T10:36:56.029Z,61.91
2023-06-25T10:42:05.059Z,61.90
2023-06-25T10:47:13.499Z,60.13
2023-06-25T10:52:21.992Z,61.44
2023-06-25T10:57:30.010Z,60.42
2023-06-25T11:02:36.128Z,62.84
2023-06-25T11:07:43.962Z,64.55
2023-06-25T11:12:49.307Z,63.35
2023-06-25T11:17:55.592Z,65.66
2023-06-25T11:23:03.872Z,65.61
2023-06-25T11:28:12.762Z,64.00
2023-06-25T11:33:19.545Z,62.52
2023-06-25T11:38:33.849Z,62.79
2023-06-25T11:43:42.030Z,63.27
2023-06-25T11:48:51.805Z,63.24
2023-06-25T11:54:01.406Z,64.55
2023-06-25T11:59:08.249Z,64.04
2023-06-25T12:04:13.461Z,65.92
2023-06-25T12:09:22.565Z,62.17
2023-06-25T12:14:27.739Z,62.02
2023-06-25T12:19:33.052Z,60.08
2023-06-25T12:24:40.879Z,61.86
2023-06-25T12:29:46.043Z,62.28
2023-06-25T12:34:51.149Z,63.79
2023-06-25T12:39:58.950Z,62.24
2023-06-25T12:45:04.146Z,62.61
2023-06-25T12:50:12.506Z,63.14
2023-06-25T12:55:20.570Z,63.16
2023-06-25T13:00:41.086Z,63.75
2023-06-25T13:05:52.206Z,65.23
2023-06-25T13:11:00.032Z,64.70
2023-06-25T13:16:05.208Z,65.51
2023-06-25T13:21:10.605Z,64.24
2023-06-25T13:26:18.499Z,65.13
2023-06-25T13:31:24.586Z,63.49
2023-06-25T13:36:30.572Z,64.67
2023-06-25T13:41:38.397Z,63.46
2023-06-25T13:46:43.611Z,62.17
2023-06-25T13:51:48.844Z,63.48
2023-06-25T13:56:57.109Z,63.08
2023-06-25T14:02:02.973Z,62.53
2023-06-25T14:07:08.820Z,63.00
2023-06-25T14:12:17.090Z,60.92
2023-06-25T14:17:22.869Z,64.04
2023-06-25T14:22:28.124Z,64.98
2023-06-25T14:27:36.147Z,65.00
2023-06-25T14:32:41.493Z,64.42
2023-06-25T14:37:46.872Z,64.50
2023-06-25T14:42:55.992Z,64.85
2023-06-25T14:48:01.125Z,66.52
2023-06-25T14:53:10.488Z,65.20
2023-06-25T14:58:18.345Z,63.65
2023-06-25T15:03:24.290Z,64.49
2023-06-25T15:08:31.044Z,63.05
2023-06-25T15:13:40.142Z,60.64
2023-06-25T15:18:45.459Z,63.32
2023-06-25T15:23:52.286Z,62.17
2023-06-25T15:29:00.205Z,62.22
2023-06-25T15:34:09.287Z,62.48
2023-06-25T15:39:14.499Z,64.03
2023-06-25T15:44:22.277Z,64.57
2023-06-25T15:49:27.813Z,65.12
2023-06-25T15:54:32.968Z,66.61
2023-06-25T15:59:42.874Z,66.15
2023-06-25T16:04:50.654Z,65.57
2023-06-25T16:10:00.210Z,64.32
2023-06-25T16:15:09.141Z,63.32
2023-06-25T16:20:14.812Z,65.30
2023-06-25T16:25:20.236Z,67.58
2023-06-25T16:30:31.682Z,69.04
2023-06-25T16:35:39.702Z,69.14
2023-06-25T16:40:46.166Z,67.32
2023-06-25T16:45:53.941Z,71.43
2023-06-25T16:50:59.087Z,70.24
2023-06-25T16:56:04.175Z,69.22
2023-06-25T17:01:14.821Z,70.58
2023-06-25T17:06:21.518Z,69.55
2023-06-25T17:11:27.665Z,70.10
2023-06-25T17:16:35.573Z,69.93
2023-06-25T17:21:41.949Z,70.29
2023-06-25T17:26:47.888Z,68.67
2023-06-25T17:32:00.116Z,70.01
2023-06-25T17:37:07.797Z,70.23
2023-06-25T17:42:15.301Z,71.07
2023-06-25T17:47:23.566Z,71.38
2023-06-25T17:52:30.443Z,71.10
2023-06-25T17:57:35.801Z,71.39
2023-06-25T18:02:43.727Z,72.15
2023-06-25T18:07:48.950Z,73.36
2023-06-25T18:12:54.058Z,74.00
2023-06-25T18:18:01.823Z,74.32
2023-06-25T18:23:07.106Z,74.92
2023-06-25T18:28:12.523Z,75.22
2023-06-25T18:33:20.310Z,75.01
2023-06-25T18:38:25.513Z,75.26
2023-06-25T18:43:31.880Z,76.14
2023-06-25T18:48:40.077Z,78.77
2023-06-25T18:53:45.221Z,81.23
2023-06-25T18:58:50.279Z,82.44
2023-06-25T19:03:58.941Z,80.83
2023-06-25T19:09:04.501Z,80.35
2023-06-25T19:14:09.814Z,84.31
2023-06-25T19:19:18.292Z,85.70
2023-06-25T19:24:24.594Z,86.92
2023-06-25T19:29:30.623Z,89.52
2023-06-25T19:34:38.500Z,93.54
2023-06-25T19:39:43.486Z,94.86
2023-06-25T19:44:48.910Z,94.23
2023-06-25T19:49:57.934Z,95.71
2023-06-25T19:55:04.033Z,96.34
2023-06-25T20:00:11.506Z,95.11
2023-06-25T20:05:23.456Z,96.73
2023-06-25T20:10:28.791Z,97.57
2023-06-25T20:15:33.967Z,99.24
2023-06-25T20:20:41.678Z,99.34
2023-06-25T20:25:46.769Z,100.00
2023-06-25T20:30:51.909Z,100.00
2023-06-25T20:36:00.676Z,100.00
2023-06-25T20:41:23.236Z,100.00
2023-06-25T20:46:31.626Z,100.00
2023-06-25T20:51:39.440Z,100.00
2023-06-25T20:56:44.751Z,100.00
2023-06-25T21:01:49.896Z,100.00
2023-06-25T21:06:57.641Z,100.00
2023-06-25T21:12:02.854Z,100.00
2023-06-25T21:17:08.430Z,100.00
2023-06-25T21:22:16.273Z,100.00
2023-06-25T21:27:21.415Z,100.00
2023-06-25T21:32:26.872Z,100.00
2023-06-25T21:37:36.907Z,100.00
2023-06-25T21:42:42.095Z,100.00
2023-06-25T21:47:47.387Z,100.00
2023-06-25T21:52:55.239Z,100.00
2023-06-25T21:58:00.456Z,100.00
2023-06-25T22:03:05.875Z,100.00
2023-06-25T22:08:13.824Z,100.00
2023-06-25T22:13:19.986Z,100.00
2023-06-25T22:18:25.096Z,100.00
2023-06-25T22:23:35.303Z,100.00
2023-06-25T22:28:40.584Z,100.00
2023-06-25T22:33:45.749Z,100.00
2023-06-25T22:38:53.552Z,100.00
2023-06-25T22:43:58.901Z,100.00
2023-06-25T22:49:04.685Z,100.00
2023-06-25T22:54:12.547Z,100.00
2023-06-25T22:59:18.098Z,100.00
2023-06-25T23:04:23.322Z,100.00
2023-06-25T23:09:34.832Z,100.00
2023-06-25T23:14:39.990Z,100.00
2023-06-25T23:19:45.918Z,100.00
2023-06-25T23:24:53.732Z,100.00
2023-06-25T23:29:59.587Z,100.00
2023-06-25T23:35:04.893Z,100.00
2023-06-25T23:40:14.286Z,100.00
2023-06-25T23:45:19.562Z,100.00
2023-06-25T23:50:25.430Z,100.00
2023-06-25T23:55:33.324Z,100.00
